createdAt,value
2018-12-12T00:02:27.520Z,20.37
2018-12-12T00:04:55.495Z,18.57
2018-12-12T00:07:23.573Z,18.03
2018-12-12T00:09:51.373Z,18.50
2018-12-12T00:12:19.680Z,16.40
2018-12-12T00:14:47.901Z,14.00
2018-12-12T00:17:15.784Z,13.20
2018-12-12T00:19:44.879Z,13.07
2018-12-12T00:22:13.103Z,13.57
2018-12-12T00:24:41.312Z,14.77
2018-12-12T00:27:09.602Z,14.60
2018-12-12T00:29:38.341Z,11.90
2018-12-12T00:32:06.572Z,7.50
2018-12-12T00:34:34.865Z,6.23
2018-12-12T00:37:03.185Z,5.17
2018-12-12T00:39:32.392Z,4.75
2018-12-12T00:42:00.556Z,5.30
2018-12-12T00:44:28.866Z,4.73
2018-12-12T00:46:56.839Z,4.67
2018-12-12T00:49:24.724Z,5.00
2018-12-12T00:51:52.834Z,4.83
2018-12-12T00:54:20.636Z,4.53
2018-12-12T00:56:51.726Z,4.90
2018-12-12T00:59:20.075Z,5.60
2018-12-12T01:01:48.340Z,5.00
2018-12-12T01:04:16.560Z,5.80
2018-12-12T01:06:44.768Z,5.27
2018-12-12T01:09:13.019Z,6.33
2018-12-12T01:11:46.394Z,6.07
2018-12-12T01:14:14.592Z,7.23
2018-12-12T01:16:42.768Z,6.60
2018-12-12T01:19:11.052Z,6.77
2018-12-12T01:21:39.212Z,6.37
2018-12-12T01:24:07.404Z,5.47
2018-12-12T01:26:35.712Z,5.17
2018-12-12T01:29:04.033Z,5.83
2018-12-12T01:31:32.192Z,5.50
2018-12-12T01:34:00.273Z,5.77
2018-12-12T01:36:28.592Z,6.13
2018-12-12T01:38:56.853Z,5.35
2018-12-12T01:41:25.078Z,6.03
2018-12-12T01:43:53.268Z,4.73
2018-12-12T01:46:21.572Z,5.78
2018-12-12T01:48:49.739Z,5.83
2018-12-12T01:51:17.941Z,5.73
2018-12-12T01:53:48.040Z,7.00
2018-12-12T01:56:16.278Z,6.53
2018-12-12T01:58:44.293Z,5.75
2018-12-12T02:01:12.598Z,6.67
2018-12-12T02:03:40.874Z,7.30
2018-12-12T02:06:09.692Z,7.47
2018-12-12T02:08:38.790Z,7.63
2018-12-12T02:11:07.020Z,7.90
2018-12-12T02:13:36.344Z,7.08
2018-12-12T02:16:05.613Z,7.10
2018-12-12T02:18:34.433Z,7.47
2018-12-12T02:21:02.810Z,7.60
2018-12-12T02:23:31.130Z,7.90
2018-12-12T02:25:59.436Z,9.05
2018-12-12T02:28:27.772Z,8.95
2018-12-12T02:30:56.040Z,8.55
2018-12-12T02:33:24.257Z,8.63
2018-12-12T02:35:52.457Z,9.60
2018-12-12T02:38:20.752Z,9.08
2018-12-12T02:40:49.247Z,8.27
2018-12-12T02:43:17.409Z,9.38
2018-12-12T02:45:45.646Z,8.47
2018-12-12T02:48:15.725Z,8.18
2018-12-12T02:50:43.927Z,8.83
2018-12-12T02:53:12.077Z,8.93
2018-12-12T02:55:40.400Z,8.67
2018-12-12T02:58:08.659Z,8.23
2018-12-12T03:00:38.845Z,7.50
2018-12-12T03:03:07.467Z,8.55
2018-12-12T03:05:35.709Z,8.30
2018-12-12T03:08:03.937Z,9.40
2018-12-12T03:10:32.463Z,9.78
2018-12-12T03:13:00.695Z,8.60
2018-12-12T03:15:28.909Z,9.30
2018-12-12T03:17:57.513Z,8.15
2018-12-12T03:20:25.748Z,9.70
2018-12-12T03:22:53.972Z,9.23
2018-12-12T03:25:22.177Z,9.63
2018-12-12T03:27:50.605Z,10.23
2018-12-12T03:30:18.809Z,9.00
2018-12-12T03:32:47.111Z,9.33
2018-12-12T03:35:15.436Z,9.53
2018-12-12T03:37:43.693Z,9.40
2018-12-12T03:40:11.907Z,9.80
2018-12-12T03:42:40.397Z,10.23
2018-12-12T03:45:08.758Z,9.48
2018-12-12T03:47:36.968Z,9.73
2018-12-12T03:50:05.483Z,10.40
2018-12-12T03:52:34.375Z,9.73
2018-12-12T03:55:02.536Z,9.43
2018-12-12T03:57:30.740Z,9.03
2018-12-12T03:59:58.980Z,10.17
2018-12-12T04:02:27.185Z,8.60
2018-12-12T04:04:55.422Z,9.53
2018-12-12T04:07:23.625Z,8.37
2018-12-12T04:09:51.855Z,9.63
2018-12-12T04:12:20.077Z,9.80
2018-12-12T04:14:48.301Z,10.65
2018-12-12T04:17:16.380Z,9.93
2018-12-12T04:19:44.684Z,9.48
2018-12-12T04:22:14.812Z,8.23
2018-12-12T04:24:43.285Z,8.18
2018-12-12T04:27:12.415Z,7.25
2018-12-12T04:29:40.477Z,8.63
2018-12-12T04:32:08.928Z,7.17
2018-12-12T04:34:37.223Z,7.12
2018-12-12T04:37:05.484Z,7.67
2018-12-12T04:39:33.710Z,8.13
2018-12-12T04:42:01.930Z,8.80
2018-12-12T04:44:30.126Z,9.08
2018-12-12T04:46:58.338Z,9.03
2018-12-12T04:49:26.643Z,8.83
2018-12-12T04:51:54.912Z,10.53
2018-12-12T04:54:23.128Z,14.25
2018-12-12T04:56:51.352Z,17.77
2018-12-12T04:59:19.925Z,12.80
2018-12-12T05:01:48.143Z,15.78
2018-12-12T05:04:16.467Z,49.67
2018-12-12T05:06:44.738Z,20.80
2018-12-12T05:09:13.009Z,18.32
2018-12-12T05:11:41.293Z,27.23
2018-12-12T05:14:09.546Z,74.92
2018-12-12T05:16:37.812Z,58.83
2018-12-12T05:19:06.029Z,22.62
2018-12-12T05:21:34.248Z,14.23
2018-12-12T05:24:02.473Z,21.85
2018-12-12T05:26:30.688Z,32.83
2018-12-12T05:28:58.912Z,28.90
2018-12-12T05:31:27.100Z,16.33
2018-12-12T05:33:55.362Z,15.07
2018-12-12T05:36:23.727Z,8.23
2018-12-12T05:38:52.047Z,9.20
2018-12-12T05:41:20.313Z,10.95
2018-12-12T05:43:48.511Z,10.17
2018-12-12T05:46:16.806Z,13.48
2018-12-12T05:48:45.877Z,9.53
2018-12-12T05:51:14.069Z,9.43
2018-12-12T05:53:42.305Z,14.93
2018-12-12T05:56:14.072Z,10.58
2018-12-12T05:58:40.918Z,9.47
2018-12-12T06:01:09.185Z,11.30
2018-12-12T06:03:37.988Z,11.77
2018-12-12T06:06:06.224Z,10.07
2018-12-12T06:08:34.499Z,8.75
2018-12-12T06:11:02.765Z,54.80
2018-12-12T06:13:30.984Z,16.30
2018-12-12T06:16:00.073Z,11.88
2018-12-12T06:18:28.919Z,16.67
2018-12-12T06:20:57.148Z,10.75
2018-12-12T06:23:25.353Z,37.00
2018-12-12T06:25:53.565Z,11.70
2018-12-12T06:28:22.188Z,12.07
2018-12-12T06:30:50.376Z,10.40
2018-12-12T06:33:18.606Z,9.33
2018-12-12T06:35:46.870Z,8.60
2018-12-12T06:38:15.092Z,9.87
2018-12-12T06:40:43.307Z,7.73
2018-12-12T06:43:11.388Z,10.00
2018-12-12T06:45:39.606Z,9.43
2018-12-12T06:48:07.748Z,7.90
2018-12-12T06:50:35.945Z,9.47
2018-12-12T06:53:04.165Z,13.60
2018-12-12T06:55:32.429Z,8.15
2018-12-12T06:58:00.652Z,9.77
2018-12-12T07:00:29.025Z,9.83
2018-12-12T07:02:57.776Z,9.73
2018-12-12T07:05:25.984Z,10.83
2018-12-12T07:07:54.288Z,9.93
2018-12-12T07:10:22.509Z,10.23
2018-12-12T07:12:51.047Z,9.47
2018-12-12T07:15:19.249Z,8.80
2018-12-12T07:17:48.022Z,10.67
2018-12-12T07:20:16.232Z,10.73
2018-12-12T07:22:44.459Z,12.60
2018-12-12T07:25:12.673Z,8.60
2018-12-12T07:27:40.953Z,10.33
2018-12-12T07:30:09.215Z,8.37
2018-12-12T07:32:37.425Z,11.00
2018-12-12T07:35:05.628Z,10.10
2018-12-12T07:37:34.633Z,9.90
2018-12-12T07:40:02.896Z,13.53
2018-12-12T07:42:31.073Z,12.07
2018-12-12T07:44:59.293Z,13.47
2018-12-12T07:47:27.527Z,13.17
2018-12-12T07:49:55.834Z,23.17
2018-12-12T07:52:24.053Z,11.97
2018-12-12T07:54:52.474Z,12.83
2018-12-12T07:57:20.740Z,11.23
2018-12-12T07:59:48.940Z,10.43
2018-12-12T08:02:17.334Z,10.60
2018-12-12T08:04:45.496Z,11.07
2018-12-12T08:07:13.776Z,14.40
2018-12-12T08:09:42.042Z,21.00
2018-12-12T08:12:10.695Z,15.40
2018-12-12T08:14:38.938Z,16.70
2018-12-12T08:17:07.330Z,16.90
2018-12-12T08:19:36.130Z,22.87
2018-12-12T08:22:04.670Z,22.17
2018-12-12T08:24:32.872Z,25.27
2018-12-12T08:27:01.076Z,23.33
2018-12-12T08:29:29.381Z,14.00
2018-12-12T08:31:57.506Z,13.03
2018-12-12T08:34:25.748Z,13.47
2018-12-12T08:36:53.956Z,13.77
2018-12-12T08:39:22.180Z,13.10
2018-12-12T08:41:50.482Z,14.27
2018-12-12T08:44:18.645Z,12.90
2018-12-12T08:46:46.867Z,10.43
2018-12-12T08:49:15.073Z,11.97
2018-12-12T08:51:43.362Z,14.53
2018-12-12T08:54:11.681Z,14.30
2018-12-12T08:56:39.828Z,15.20
2018-12-12T08:59:08.022Z,31.93
2018-12-12T09:01:36.442Z,22.00
2018-12-12T09:04:04.704Z,13.57
2018-12-12T09:06:32.899Z,12.03
2018-12-12T09:09:01.115Z,12.83
2018-12-12T09:11:29.702Z,16.70
2018-12-12T09:13:57.868Z,20.60
2018-12-12T09:16:26.063Z,33.07
2018-12-12T09:18:54.386Z,24.27
2018-12-12T09:21:22.706Z,19.47
2018-12-12T09:23:50.953Z,12.10
2018-12-12T09:26:19.164Z,11.13
2018-12-12T09:28:47.385Z,11.17
2018-12-12T09:31:15.684Z,10.80
2018-12-12T09:33:43.904Z,10.33
2018-12-12T09:36:12.323Z,10.83
2018-12-12T09:38:40.591Z,17.30
2018-12-12T09:41:08.810Z,11.90
2018-12-12T09:43:37.087Z,14.37
2018-12-12T09:46:05.353Z,18.47
2018-12-12T09:48:33.572Z,19.30
2018-12-12T09:51:07.057Z,14.70
2018-12-12T09:53:32.408Z,8.10
2018-12-12T09:56:00.693Z,10.57
2018-12-12T09:58:28.913Z,16.53
2018-12-12T10:00:57.176Z,13.90
2018-12-12T10:03:30.993Z,9.93
2018-12-12T10:05:55.626Z,15.70
2018-12-12T10:08:23.841Z,12.40
2018-12-12T10:10:51.964Z,11.73
2018-12-12T10:13:20.184Z,11.50
2018-12-12T10:15:48.461Z,11.83
2018-12-12T10:18:16.981Z,9.97
2018-12-12T10:20:45.301Z,8.40
2018-12-12T10:23:13.568Z,10.70
2018-12-12T10:25:41.774Z,12.00
2018-12-12T10:28:10.258Z,10.50
2018-12-12T10:30:39.317Z,9.03
2018-12-12T10:33:07.316Z,12.40
2018-12-12T10:35:35.572Z,9.73
2018-12-12T10:38:03.742Z,9.27
2018-12-12T10:40:32.892Z,14.03
2018-12-12T10:43:01.277Z,13.57
2018-12-12T10:45:29.432Z,9.77
2018-12-12T10:47:57.651Z,10.43
2018-12-12T10:50:26.306Z,9.00
2018-12-12T10:52:54.488Z,11.23
2018-12-12T10:55:22.722Z,9.03
2018-12-12T10:57:51.009Z,10.10
2018-12-12T11:00:19.275Z,10.27
2018-12-12T11:02:50.500Z,10.10
2018-12-12T11:05:18.979Z,10.43
2018-12-12T11:07:47.200Z,15.00
2018-12-12T11:10:16.026Z,12.47
2018-12-12T11:12:44.244Z,13.27
2018-12-12T11:15:12.604Z,10.40
2018-12-12T11:17:40.707Z,12.57
2018-12-12T11:20:08.924Z,9.63
2018-12-12T11:22:37.221Z,20.13
2018-12-12T11:25:05.577Z,16.17
2018-12-12T11:27:33.966Z,12.10
2018-12-12T11:30:02.212Z,23.17
2018-12-12T11:32:30.796Z,13.47
2018-12-12T11:34:59.024Z,11.53
2018-12-12T11:37:27.344Z,10.03
2018-12-12T11:39:55.366Z,10.13
2018-12-12T11:42:23.629Z,9.70
2018-12-12T11:44:51.893Z,9.33
2018-12-12T11:47:20.137Z,11.93
2018-12-12T11:49:48.369Z,10.40
2018-12-12T11:52:16.664Z,8.00
2018-12-12T11:54:44.928Z,7.37
2018-12-12T11:57:13.500Z,10.30
2018-12-12T11:59:42.352Z,9.77
2018-12-12T12:02:10.648Z,10.93
2018-12-12T12:04:38.788Z,7.50
2018-12-12T12:07:06.932Z,12.30
2018-12-12T12:09:35.737Z,13.43
2018-12-12T12:12:04.031Z,5.67
2018-12-12T12:14:32.344Z,10.23
2018-12-12T12:17:00.612Z,9.77
2018-12-12T12:19:28.832Z,7.43
2018-12-12T12:21:57.044Z,14.77
2018-12-12T12:24:25.277Z,15.17
2018-12-12T12:26:53.552Z,6.30
2018-12-12T12:29:21.912Z,5.50
2018-12-12T12:31:50.039Z,5.90
2018-12-12T12:34:18.112Z,5.07
2018-12-12T12:36:46.925Z,13.07
2018-12-12T12:39:15.395Z,9.00
2018-12-12T12:41:43.699Z,13.77
2018-12-12T12:44:11.944Z,13.63
2018-12-12T12:46:40.112Z,12.63
2018-12-12T12:49:08.465Z,10.33
2018-12-12T12:51:36.655Z,8.57
2018-12-12T12:54:04.974Z,6.87
2018-12-12T12:56:33.236Z,6.87
2018-12-12T12:59:01.434Z,7.13
2018-12-12T13:01:29.728Z,6.00
2018-12-12T13:03:58.757Z,9.43
2018-12-12T13:06:27.021Z,8.47
2018-12-12T13:08:55.236Z,9.27
2018-12-12T13:11:23.356Z,8.97
2018-12-12T13:13:51.581Z,8.20
2018-12-12T13:16:19.778Z,8.13
2018-12-12T13:18:47.974Z,7.17
2018-12-12T13:21:16.944Z,7.30
2018-12-12T13:23:45.149Z,9.63
2018-12-12T13:26:13.364Z,10.83
2018-12-12T13:28:41.577Z,12.50
2018-12-12T13:31:09.880Z,6.60
2018-12-12T13:33:38.228Z,9.20
2018-12-12T13:36:06.422Z,9.10
2018-12-12T13:38:34.740Z,13.67
2018-12-12T13:41:03.005Z,7.80
2018-12-12T13:43:31.933Z,8.37
2018-12-12T13:46:07.031Z,12.67
2018-12-12T13:48:35.292Z,9.00
2018-12-12T13:51:03.568Z,13.07
2018-12-12T13:53:31.887Z,18.27
2018-12-12T13:56:00.254Z,13.17
2018-12-12T13:58:28.448Z,12.03
2018-12-12T14:00:56.672Z,12.83
2018-12-12T14:03:24.909Z,11.70
2018-12-12T14:05:53.132Z,12.40
2018-12-12T14:08:21.349Z,9.77
2018-12-12T14:10:49.449Z,9.80
2018-12-12T14:13:18.392Z,26.30
2018-12-12T14:15:47.429Z,72.83
2018-12-12T14:18:15.624Z,56.87
2018-12-12T14:20:43.838Z,76.43
2018-12-12T14:23:12.131Z,88.13
2018-12-12T14:25:40.352Z,101.67
2018-12-12T14:28:08.521Z,58.03
2018-12-12T14:30:36.693Z,17.63
2018-12-12T14:33:04.994Z,128.93
2018-12-12T14:35:33.281Z,43.43
2018-12-12T14:38:01.452Z,70.00
2018-12-12T14:40:29.771Z,33.23
2018-12-12T14:42:58.093Z,19.43
2018-12-12T14:45:26.356Z,22.17
2018-12-12T14:47:54.528Z,33.77
2018-12-12T14:50:22.679Z,50.03
2018-12-12T14:52:50.916Z,47.90
2018-12-12T14:55:19.112Z,25.97
2018-12-12T14:57:47.325Z,21.67
2018-12-12T15:00:15.631Z,19.50
2018-12-12T15:02:43.891Z,27.23
2018-12-12T15:05:12.126Z,50.37
2018-12-12T15:07:40.292Z,30.63
2018-12-12T15:10:08.556Z,22.43
2018-12-12T15:12:36.731Z,25.00
2018-12-12T15:15:05.076Z,33.20
2018-12-12T15:17:33.313Z,41.83
2018-12-12T15:20:01.542Z,43.67
2018-12-12T15:22:29.901Z,41.93
2018-12-12T15:24:58.234Z,42.67
2018-12-12T15:27:27.185Z,55.67
2018-12-12T15:29:55.299Z,80.90
2018-12-12T15:32:23.595Z,93.47
2018-12-12T15:34:51.815Z,92.43
2018-12-12T15:37:19.965Z,63.60
2018-12-12T15:39:48.173Z,61.40
2018-12-12T15:42:16.476Z,51.33
2018-12-12T15:44:44.695Z,82.67
2018-12-12T15:47:12.962Z,89.77
2018-12-12T15:49:41.148Z,49.07
2018-12-12T15:52:09.361Z,37.07
2018-12-12T15:54:37.602Z,40.73
2018-12-12T15:57:05.897Z,64.17
2018-12-12T15:59:34.161Z,91.03
2018-12-12T16:02:02.364Z,100.77
2018-12-12T16:04:31.052Z,121.90
2018-12-12T16:06:59.313Z,120.50
2018-12-12T16:09:27.548Z,101.93
2018-12-12T16:11:55.736Z,99.17
2018-12-12T16:14:24.037Z,85.87
2018-12-12T16:16:52.301Z,59.47
2018-12-12T16:19:20.462Z,72.43
2018-12-12T16:21:48.739Z,141.87
2018-12-12T16:24:16.944Z,99.43
2018-12-12T16:26:45.242Z,109.47
2018-12-12T16:29:14.352Z,136.43
2018-12-12T16:31:42.524Z,120.37
2018-12-12T16:34:10.716Z,160.67
2018-12-12T16:36:38.936Z,120.20
2018-12-12T16:39:07.889Z,77.57
2018-12-12T16:41:36.209Z,66.87
2018-12-12T16:44:04.329Z,70.30
2018-12-12T16:46:32.505Z,68.80
2018-12-12T16:49:00.767Z,70.40
2018-12-12T16:51:28.946Z,63.97
2018-12-12T16:53:57.688Z,57.93
2018-12-12T16:56:25.837Z,54.07
2018-12-12T16:58:54.104Z,46.77
2018-12-12T17:01:22.272Z,22.03
2018-12-12T17:03:50.676Z,11.07
2018-12-12T17:06:18.964Z,12.97
2018-12-12T17:08:47.185Z,20.43
2018-12-12T17:11:16.008Z,14.20
2018-12-12T17:13:44.274Z,10.80
2018-12-12T17:16:12.473Z,11.43
2018-12-12T17:18:41.327Z,10.83
2018-12-12T17:21:09.636Z,9.03
2018-12-12T17:23:38.164Z,7.63
2018-12-12T17:26:06.377Z,11.17
2018-12-12T17:28:34.651Z,12.53
2018-12-12T17:31:02.774Z,10.87
2018-12-12T17:33:30.920Z,14.87
2018-12-12T17:35:59.137Z,11.63
2018-12-12T17:38:27.501Z,16.43
2018-12-12T17:40:55.801Z,13.13
2018-12-12T17:43:24.411Z,16.03
2018-12-12T17:45:52.693Z,25.90
2018-12-12T17:48:20.861Z,18.67
2018-12-12T17:50:49.077Z,19.80
2018-12-12T17:53:17.287Z,20.57
2018-12-12T17:55:45.572Z,18.73
2018-12-12T17:58:13.825Z,21.23
2018-12-12T18:00:43.189Z,23.43
2018-12-12T18:03:11.637Z,23.77
2018-12-12T18:05:39.957Z,31.87
2018-12-12T18:08:08.105Z,36.77
2018-12-12T18:10:36.400Z,20.13
2018-12-12T18:13:04.617Z,21.00
2018-12-12T18:15:32.805Z,24.67
2018-12-12T18:18:00.984Z,27.27
2018-12-12T18:20:29.209Z,23.90
2018-12-12T18:22:57.446Z,21.93
2018-12-12T18:25:25.561Z,33.00
2018-12-12T18:27:53.792Z,35.87
2018-12-12T18:30:22.056Z,33.07
2018-12-12T18:32:51.726Z,42.57
2018-12-12T18:35:21.985Z,42.30
2018-12-12T18:37:50.161Z,38.50
2018-12-12T18:40:18.506Z,53.80
2018-12-12T18:42:47.629Z,67.27
2018-12-12T18:45:15.837Z,54.10
2018-12-12T18:47:43.962Z,42.63
2018-12-12T18:50:12.162Z,42.43
2018-12-12T18:52:40.456Z,41.63
2018-12-12T18:55:08.718Z,42.30
2018-12-12T18:57:36.897Z,44.73
2018-12-12T19:00:05.212Z,40.97
2018-12-12T19:02:33.533Z,34.83
2018-12-12T19:05:01.957Z,32.83
2018-12-12T19:07:30.275Z,43.47
2018-12-12T19:09:58.812Z,47.67
2018-12-12T19:12:27.041Z,40.03
2018-12-12T19:15:02.158Z,43.57
2018-12-12T19:17:30.329Z,41.80
2018-12-12T19:19:58.541Z,47.93
2018-12-12T19:22:26.718Z,45.83
2018-12-12T19:24:55.073Z,37.97
2018-12-12T19:27:23.253Z,37.33
2018-12-12T19:29:51.565Z,35.00
2018-12-12T19:32:19.893Z,34.30
2018-12-12T19:34:49.907Z,34.83
2018-12-12T19:37:18.332Z,37.03
2018-12-12T19:39:46.579Z,38.23
2018-12-12T19:42:14.766Z,41.20
2018-12-12T19:44:42.985Z,41.43
2018-12-12T19:47:11.191Z,38.67
2018-12-12T19:49:39.535Z,29.57
2018-12-12T19:52:07.752Z,27.90
2018-12-12T19:54:36.027Z,29.33
2018-12-12T19:57:04.247Z,27.00
2018-12-12T19:59:32.517Z,26.30
2018-12-12T20:02:01.041Z,26.63
2018-12-12T20:04:29.756Z,31.43
2018-12-12T20:06:58.030Z,29.40
2018-12-12T20:09:26.285Z,27.30
2018-12-12T20:11:54.488Z,27.07
2018-12-12T20:14:22.508Z,26.60
2018-12-12T20:16:50.765Z,23.57
2018-12-12T20:19:19.030Z,24.73
2018-12-12T20:21:47.352Z,25.67
2018-12-12T20:24:15.571Z,29.03
2018-12-12T20:26:43.915Z,24.43
2018-12-12T20:29:12.157Z,67.03
2018-12-12T20:31:40.376Z,59.90
2018-12-12T20:34:08.565Z,80.23
2018-12-12T20:36:36.848Z,61.67
2018-12-12T20:39:06.241Z,42.13
2018-12-12T20:41:34.465Z,39.73
2018-12-12T20:44:02.656Z,41.63
2018-12-12T20:46:31.182Z,28.07
2018-12-12T20:48:59.723Z,24.70
2018-12-12T20:51:28.145Z,23.93
2018-12-12T20:53:56.588Z,35.93
2018-12-12T20:56:24.771Z,58.70
2018-12-12T20:58:53.200Z,50.90
2018-12-12T21:01:21.424Z,42.83
2018-12-12T21:03:49.645Z,56.97
2018-12-12T21:06:17.843Z,100.37
2018-12-12T21:08:47.059Z,58.80
2018-12-12T21:11:15.287Z,41.63
2018-12-12T21:13:43.528Z,50.30
2018-12-12T21:16:11.802Z,39.47
2018-12-12T21:18:40.123Z,39.63
2018-12-12T21:21:09.385Z,43.57
2018-12-12T21:23:37.566Z,38.37
2018-12-12T21:26:06.202Z,36.40
2018-12-12T21:28:34.879Z,36.77
2018-12-12T21:31:03.068Z,42.47
2018-12-12T21:33:31.296Z,28.23
2018-12-12T21:36:00.908Z,26.07
2018-12-12T21:38:30.618Z,21.07
2018-12-12T21:40:59.165Z,21.33
2018-12-12T21:43:27.913Z,18.43
2018-12-12T21:45:57.440Z,16.27
2018-12-12T21:48:26.557Z,17.80
2018-12-12T21:50:54.493Z,23.17
2018-12-12T21:53:22.673Z,23.77
2018-12-12T21:55:52.152Z,24.67
2018-12-12T21:58:20.528Z,27.63
2018-12-12T22:00:48.509Z,25.10
2018-12-12T22:03:17.185Z,24.20
2018-12-12T22:05:45.888Z,20.70
2018-12-12T22:08:15.028Z,20.70
2018-12-12T22:10:43.224Z,20.13
2018-12-12T22:13:11.399Z,19.40
2018-12-12T22:15:39.620Z,21.13
2018-12-12T22:18:07.852Z,18.10
2018-12-12T22:20:38.946Z,18.30
2018-12-12T22:23:07.332Z,18.30
2018-12-12T22:25:36.841Z,17.47
2018-12-12T22:28:05.081Z,17.57
2018-12-12T22:30:33.396Z,17.53
2018-12-12T22:33:01.320Z,16.73
2018-12-12T22:35:29.593Z,18.37
2018-12-12T22:37:57.649Z,18.67
2018-12-12T22:40:26.089Z,20.63
2018-12-12T22:42:55.217Z,20.90
2018-12-12T22:45:23.509Z,21.47
2018-12-12T22:47:52.657Z,21.43
2018-12-12T22:50:21.280Z,27.70
2018-12-12T22:52:49.294Z,23.10
2018-12-12T22:55:20.252Z,15.60
2018-12-12T22:57:48.495Z,16.10
2018-12-12T23:00:22.632Z,14.80
2018-12-12T23:02:51.080Z,19.23
2018-12-12T23:05:19.365Z,16.20
2018-12-12T23:07:48.537Z,15.80
2018-12-12T23:10:16.900Z,15.60
2018-12-12T23:12:45.637Z,14.70
2018-12-12T23:15:14.193Z,14.73
2018-12-12T23:17:42.479Z,15.03
2018-12-12T23:20:10.657Z,14.47
2018-12-12T23:22:38.916Z,19.63
2018-12-12T23:25:07.140Z,17.73
2018-12-12T23:27:35.905Z,18.50
2018-12-12T23:30:05.059Z,20.40
2018-12-12T23:32:33.131Z,20.13
2018-12-12T23:35:01.423Z,19.13
2018-12-12T23:37:29.685Z,19.33
2018-12-12T23:39:57.963Z,18.93
2018-12-12T23:42:26.132Z,17.70
2018-12-12T23:44:55.481Z,17.03
2018-12-12T23:47:24.529Z,14.90
2018-12-12T23:49:52.696Z,14.70
2018-12-12T23:52:21.137Z,18.73
2018-12-12T23:54:53.217Z,17.90
2018-12-12T23:57:22.521Z,20.70
2018-12-12T23:59:50.847Z,18.40
